createdAt,value
2018-01-22T00:00:38.579Z,7.07
2018-01-22T00:03:07.354Z,6.90
2018-01-22T00:05:35.351Z,7.68
2018-01-22T00:08:03.362Z,7.12
2018-01-22T00:10:32.119Z,6.95
2018-01-22T00:13:00.124Z,9.05
2018-01-22T00:15:28.123Z,6.50
2018-01-22T00:17:56.892Z,7.78
2018-01-22T00:20:24.887Z,6.37
2018-01-22T00:22:52.880Z,6.70
2018-01-22T00:25:20.887Z,6.60
2018-01-22T00:27:48.891Z,6.68
2018-01-22T00:30:16.888Z,6.20
2018-01-22T00:32:44.895Z,6.53
2018-01-22T00:35:12.903Z,8.18
2018-01-22T00:37:41.647Z,6.25
2018-01-22T00:40:09.655Z,8.10
2018-01-22T00:42:37.652Z,4.95
2018-01-22T00:45:05.665Z,6.20
2018-01-22T00:47:34.440Z,7.87
2018-01-22T00:50:02.427Z,5.28
2018-01-22T00:52:31.193Z,6.93
2018-01-22T00:54:59.183Z,6.50
2018-01-22T00:57:27.188Z,5.90
2018-01-22T00:59:55.180Z,6.37
2018-01-22T01:02:23.943Z,5.82
2018-01-22T01:04:51.947Z,7.40
2018-01-22T01:07:19.930Z,5.60
2018-01-22T01:09:47.932Z,6.55
2018-01-22T01:12:16.692Z,6.78
2018-01-22T01:14:44.684Z,6.10
2018-01-22T01:17:12.694Z,6.53
2018-01-22T01:19:41.467Z,8.40
2018-01-22T01:22:09.456Z,8.85
2018-01-22T01:24:37.471Z,5.80
2018-01-22T01:27:05.476Z,6.93
2018-01-22T01:29:33.467Z,7.90
2018-01-22T01:32:01.472Z,5.53
2018-01-22T01:34:29.503Z,6.47
2018-01-22T01:36:57.491Z,6.82
2018-01-22T01:39:25.487Z,6.37
2018-01-22T01:41:53.492Z,6.55
2018-01-22T01:44:21.487Z,8.57
2018-01-22T01:46:49.552Z,6.93
2018-01-22T01:49:17.612Z,5.80
2018-01-22T01:51:45.648Z,5.47
2018-01-22T01:54:13.694Z,6.20
2018-01-22T01:56:41.759Z,7.07
2018-01-22T01:59:10.585Z,5.35
2018-01-22T02:01:38.616Z,7.35
2018-01-22T02:04:06.665Z,4.82
2018-01-22T02:06:34.692Z,6.60
2018-01-22T02:09:03.513Z,5.18
2018-01-22T02:11:32.304Z,6.75
2018-01-22T02:14:01.145Z,4.72
2018-01-22T02:16:29.188Z,6.40
2018-01-22T02:18:58.000Z,6.37
2018-01-22T02:21:26.812Z,4.85
2018-01-22T02:23:54.844Z,6.47
2018-01-22T02:26:22.888Z,7.03
2018-01-22T02:28:50.916Z,5.45
2018-01-22T02:31:18.973Z,6.90
2018-01-22T02:33:47.024Z,6.12
2018-01-22T02:36:15.064Z,8.50
2018-01-22T02:38:43.923Z,5.68
2018-01-22T02:41:11.952Z,6.25
2018-01-22T02:43:40.004Z,5.95
2018-01-22T02:46:08.033Z,8.32
2018-01-22T02:48:36.960Z,7.25
2018-01-22T02:51:05.778Z,6.80
2018-01-22T02:53:33.812Z,7.05
2018-01-22T02:56:01.875Z,7.07
2018-01-22T02:58:29.912Z,8.57
2018-01-22T03:00:58.728Z,8.93
2018-01-22T03:03:26.780Z,8.52
2018-01-22T03:05:55.600Z,7.10
2018-01-22T03:08:24.428Z,6.87
2018-01-22T03:10:52.473Z,8.48
2018-01-22T03:13:20.521Z,6.75
2018-01-22T03:15:48.554Z,6.70
2018-01-22T03:18:17.368Z,8.63
2018-01-22T03:20:45.429Z,7.18
2018-01-22T03:23:14.222Z,8.35
2018-01-22T03:25:42.276Z,7.35
2018-01-22T03:28:10.300Z,5.87
2018-01-22T03:30:39.136Z,6.12
2018-01-22T03:33:07.177Z,7.30
2018-01-22T03:35:35.991Z,5.95
2018-01-22T03:38:04.796Z,4.95
2018-01-22T03:40:33.592Z,6.10
2018-01-22T03:43:02.405Z,9.40
2018-01-22T03:45:30.445Z,6.78
2018-01-22T03:47:58.484Z,6.85
2018-01-22T03:50:26.516Z,5.40
2018-01-22T03:52:56.073Z,6.40
2018-01-22T03:55:24.128Z,7.70
2018-01-22T03:57:52.161Z,6.47
2018-01-22T04:00:20.208Z,6.62
2018-01-22T04:02:48.241Z,5.78
2018-01-22T04:05:16.287Z,6.03
2018-01-22T04:07:45.093Z,5.37
2018-01-22T04:10:13.916Z,5.40
2018-01-22T04:12:41.945Z,4.30
2018-01-22T04:15:10.005Z,6.32
2018-01-22T04:17:38.076Z,5.95
2018-01-22T04:20:06.122Z,5.65
2018-01-22T04:22:34.932Z,5.62
2018-01-22T04:25:02.956Z,5.00
2018-01-22T04:27:31.024Z,5.28
2018-01-22T04:29:59.060Z,5.22
2018-01-22T04:32:27.104Z,4.97
2018-01-22T04:34:55.136Z,5.70
2018-01-22T04:37:23.953Z,5.00
2018-01-22T04:39:51.972Z,5.37
2018-01-22T04:42:20.012Z,6.55
2018-01-22T04:44:48.819Z,5.22
2018-01-22T04:47:16.852Z,4.60
2018-01-22T04:49:44.884Z,4.82
2018-01-22T04:52:13.696Z,5.40
2018-01-22T04:54:41.724Z,4.62
2018-01-22T04:57:09.761Z,4.50
2018-01-22T04:59:37.823Z,5.35
2018-01-22T05:02:05.841Z,5.25
2018-01-22T05:04:33.899Z,5.30
2018-01-22T05:07:02.728Z,4.30
2018-01-22T05:09:30.771Z,3.90
2018-01-22T05:11:58.815Z,4.22
2018-01-22T05:14:26.844Z,5.15
2018-01-22T05:16:55.664Z,5.22
2018-01-22T05:19:23.700Z,4.18
2018-01-22T05:21:51.739Z,5.87
2018-01-22T05:24:19.780Z,4.45
2018-01-22T05:26:47.833Z,5.90
2018-01-22T05:29:15.876Z,5.40
2018-01-22T05:31:43.912Z,5.65
2018-01-22T05:34:11.969Z,5.22
2018-01-22T05:36:39.994Z,4.85
2018-01-22T05:39:09.545Z,4.35
2018-01-22T05:41:38.348Z,4.75
2018-01-22T05:44:07.180Z,5.15
2018-01-22T05:46:35.228Z,5.22
2018-01-22T05:49:04.026Z,4.75
2018-01-22T05:51:32.836Z,5.70
2018-01-22T05:54:00.884Z,4.82
2018-01-22T05:56:28.956Z,4.90
2018-01-22T05:58:56.989Z,6.55
2018-01-22T06:01:25.796Z,5.43
2018-01-22T06:03:53.841Z,5.12
2018-01-22T06:06:21.863Z,6.37
2018-01-22T06:08:49.912Z,6.55
2018-01-22T06:11:17.942Z,5.45
2018-01-22T06:13:45.997Z,6.50
2018-01-22T06:16:14.816Z,4.10
2018-01-22T06:18:42.860Z,5.15
2018-01-22T06:21:10.903Z,5.85
2018-01-22T06:23:38.945Z,4.95
2018-01-22T06:26:07.764Z,4.87
2018-01-22T06:28:35.809Z,4.93
2018-01-22T06:31:03.863Z,4.95
2018-01-22T06:33:31.885Z,4.90
2018-01-22T06:35:59.957Z,5.20
2018-01-22T06:38:28.028Z,5.32
2018-01-22T06:40:56.120Z,6.37
2018-01-22T06:43:24.120Z,4.20
2018-01-22T06:45:52.256Z,5.15
2018-01-22T06:48:20.300Z,5.80
2018-01-22T06:50:49.092Z,3.83
2018-01-22T06:53:17.140Z,5.10
2018-01-22T06:55:45.198Z,5.90
2018-01-22T06:58:13.248Z,6.43
2018-01-22T07:00:41.299Z,4.10
2018-01-22T07:03:09.312Z,5.12
2018-01-22T07:05:37.364Z,6.30
2018-01-22T07:08:05.420Z,5.70
2018-01-22T07:10:33.481Z,4.20
2018-01-22T07:13:02.285Z,4.28
2018-01-22T07:15:31.108Z,4.65
2018-01-22T07:17:59.156Z,6.10
2018-01-22T07:20:27.201Z,7.70
2018-01-22T07:22:55.235Z,5.32
2018-01-22T07:25:24.040Z,5.47
2018-01-22T07:27:52.097Z,5.03
2018-01-22T07:30:20.126Z,5.85
2018-01-22T07:32:48.170Z,5.35
2018-01-22T07:35:16.193Z,4.80
2018-01-22T07:37:44.248Z,5.47
2018-01-22T07:40:13.047Z,5.75
2018-01-22T07:42:41.861Z,5.70
2018-01-22T07:45:10.661Z,5.87
2018-01-22T07:47:39.476Z,5.82
2018-01-22T07:50:07.521Z,5.07
2018-01-22T07:52:35.550Z,4.85
2018-01-22T07:55:03.625Z,5.45
2018-01-22T07:57:31.665Z,5.28
2018-01-22T07:59:59.713Z,4.57
2018-01-22T08:02:27.765Z,4.65
2018-01-22T08:04:55.804Z,6.65
2018-01-22T08:07:23.852Z,4.70
2018-01-22T08:09:51.881Z,5.78
2018-01-22T08:12:21.432Z,5.07
2018-01-22T08:14:50.228Z,4.93
2018-01-22T08:17:19.049Z,5.87
2018-01-22T08:19:47.099Z,4.68
2018-01-22T08:22:15.154Z,5.70
2018-01-22T08:24:43.194Z,5.75
2018-01-22T08:27:11.224Z,5.87
2018-01-22T08:29:39.281Z,5.82
2018-01-22T08:32:07.316Z,5.70
2018-01-22T08:34:35.373Z,6.53
2018-01-22T08:37:03.444Z,5.10
2018-01-22T08:39:31.464Z,4.95
2018-01-22T08:41:59.557Z,5.32
2018-01-22T08:44:27.561Z,5.43
2018-01-22T08:46:55.616Z,5.00
2018-01-22T08:49:23.648Z,5.28
2018-01-22T08:51:51.692Z,4.55
2018-01-22T08:54:20.504Z,6.62
2018-01-22T08:56:49.349Z,6.20
2018-01-22T08:59:17.389Z,4.65
2018-01-22T09:01:46.192Z,5.28
2018-01-22T09:04:15.008Z,4.82
2018-01-22T09:06:43.041Z,5.90
2018-01-22T09:09:11.087Z,4.45
2018-01-22T09:11:39.128Z,4.00
2018-01-22T09:14:07.162Z,4.53
2018-01-22T09:16:35.219Z,4.82
2018-01-22T09:19:04.017Z,6.68
2018-01-22T09:21:32.828Z,4.55
2018-01-22T09:24:00.865Z,4.45
2018-01-22T09:26:28.920Z,5.35
2018-01-22T09:28:56.961Z,3.58
2018-01-22T09:31:25.764Z,4.82
2018-01-22T09:33:54.577Z,5.25
2018-01-22T09:36:22.613Z,4.75
2018-01-22T09:38:50.656Z,4.40
2018-01-22T09:41:18.693Z,5.43
2018-01-22T09:43:46.731Z,4.70
2018-01-22T09:46:14.780Z,5.32
2018-01-22T09:48:43.572Z,4.72
2018-01-22T09:51:11.627Z,5.62
2018-01-22T09:53:39.667Z,3.83
2018-01-22T09:56:08.464Z,4.12
2018-01-22T09:58:36.507Z,4.15
2018-01-22T10:01:04.548Z,4.80
2018-01-22T10:03:32.608Z,5.28
2018-01-22T10:06:01.400Z,3.15
2018-01-22T10:08:30.221Z,4.37
2018-01-22T10:10:58.254Z,3.25
2018-01-22T10:13:26.297Z,3.50
2018-01-22T10:15:54.333Z,3.50
2018-01-22T10:18:22.401Z,3.70
2018-01-22T10:20:50.449Z,4.32
2018-01-22T10:23:18.480Z,3.90
2018-01-22T10:25:46.527Z,2.85
2018-01-22T10:28:14.580Z,5.07
2018-01-22T10:30:43.441Z,3.45
2018-01-22T10:33:11.424Z,3.12
2018-01-22T10:35:39.481Z,4.35
2018-01-22T10:38:07.512Z,4.30
2018-01-22T10:40:35.557Z,3.40
2018-01-22T10:43:03.600Z,3.05
2018-01-22T10:45:32.388Z,3.30
2018-01-22T10:48:01.205Z,4.03
2018-01-22T10:50:30.007Z,3.92
2018-01-22T10:52:58.812Z,4.20
2018-01-22T10:55:26.848Z,3.65
2018-01-22T10:57:54.893Z,3.92
2018-01-22T11:00:22.948Z,4.43
2018-01-22T11:02:50.988Z,4.30
2018-01-22T11:05:19.038Z,3.53
2018-01-22T11:07:47.060Z,3.08
2018-01-22T11:10:15.109Z,3.90
2018-01-22T11:12:43.144Z,4.37
2018-01-22T11:15:11.192Z,3.45
2018-01-22T11:17:39.217Z,4.25
2018-01-22T11:20:07.260Z,4.07
2018-01-22T11:22:35.288Z,3.53
2018-01-22T11:25:03.360Z,3.50
2018-01-22T11:27:31.424Z,3.80
2018-01-22T11:29:59.472Z,4.75
2018-01-22T11:32:27.525Z,4.18
2018-01-22T11:34:55.552Z,3.62
2018-01-22T11:37:23.604Z,3.97
2018-01-22T11:39:52.400Z,4.03
2018-01-22T11:42:21.217Z,6.05
2018-01-22T11:44:49.260Z,4.45
2018-01-22T11:47:17.297Z,3.42
2018-01-22T11:49:45.357Z,5.28
2018-01-22T11:52:14.152Z,4.55
2018-01-22T11:54:42.973Z,3.90
2018-01-22T11:57:11.768Z,4.95
2018-01-22T11:59:40.592Z,4.80
2018-01-22T12:02:08.641Z,4.72
2018-01-22T12:04:37.440Z,4.30
2018-01-22T12:07:06.272Z,4.53
2018-01-22T12:09:34.302Z,3.95
2018-01-22T12:12:02.357Z,5.20
2018-01-22T12:14:30.432Z,4.25
2018-01-22T12:16:58.480Z,5.20
2018-01-22T12:19:26.501Z,4.28
2018-01-22T12:21:54.545Z,4.40
2018-01-22T12:24:23.345Z,4.50
2018-01-22T12:26:52.171Z,4.53
2018-01-22T12:29:20.212Z,5.10
2018-01-22T12:31:48.236Z,4.30
2018-01-22T12:34:16.280Z,4.80
2018-01-22T12:36:44.507Z,5.53
2018-01-22T12:39:13.321Z,5.32
2018-01-22T12:41:41.353Z,4.72
2018-01-22T12:44:09.391Z,5.70
2018-01-22T12:46:37.424Z,5.62
2018-01-22T12:49:05.476Z,5.32
2018-01-22T12:51:33.508Z,4.78
2018-01-22T12:54:02.325Z,4.47
2018-01-22T12:56:31.165Z,5.20
2018-01-22T12:58:59.206Z,6.37
2018-01-22T13:01:28.004Z,5.78
2018-01-22T13:03:56.822Z,5.68
2018-01-22T13:06:24.880Z,5.28
2018-01-22T13:08:52.941Z,4.97
2018-01-22T13:11:21.073Z,5.95
2018-01-22T13:13:49.876Z,5.57
2018-01-22T13:16:17.904Z,5.00
2018-01-22T13:18:45.957Z,5.68
2018-01-22T13:21:14.008Z,5.30
2018-01-22T13:23:42.809Z,6.10
2018-01-22T13:26:10.849Z,6.53
2018-01-22T13:28:38.880Z,5.65
2018-01-22T13:31:07.706Z,5.72
2018-01-22T13:33:35.732Z,6.07
2018-01-22T13:36:03.784Z,6.60
2018-01-22T13:38:31.813Z,5.85
2018-01-22T13:41:05.652Z,5.20
2018-01-22T13:43:34.448Z,6.43
2018-01-22T13:46:03.273Z,4.57
2018-01-22T13:48:32.096Z,4.05
2018-01-22T13:51:01.566Z,4.35
2018-01-22T13:53:29.612Z,3.92
2018-01-22T13:55:57.649Z,4.97
2018-01-22T13:58:26.473Z,5.43
2018-01-22T14:00:54.492Z,5.10
2018-01-22T14:03:22.550Z,5.07
2018-01-22T14:05:50.592Z,4.40
2018-01-22T14:08:19.383Z,5.05
2018-01-22T14:10:47.449Z,5.12
2018-01-22T14:13:15.465Z,5.85
2018-01-22T14:15:44.404Z,5.05
2018-01-22T14:18:12.436Z,4.62
2018-01-22T14:20:41.252Z,5.10
2018-01-22T14:23:10.064Z,5.22
2018-01-22T14:25:38.112Z,4.62
2018-01-22T14:28:06.156Z,5.50
2018-01-22T14:30:34.193Z,5.03
2018-01-22T14:33:03.005Z,4.22
2018-01-22T14:35:31.801Z,5.80
2018-01-22T14:38:00.653Z,6.62
2018-01-22T14:40:28.688Z,4.95
2018-01-22T14:42:57.501Z,5.47
2018-01-22T14:45:26.312Z,4.70
2018-01-22T14:47:54.344Z,4.78
2018-01-22T14:50:22.391Z,4.93
2018-01-22T14:52:50.428Z,5.37
2018-01-22T14:55:18.475Z,5.20
2018-01-22T14:57:46.501Z,5.30
2018-01-22T15:00:15.316Z,6.20
2018-01-22T15:02:44.112Z,4.68
2018-01-22T15:05:12.920Z,6.82
2018-01-22T15:07:41.740Z,6.82
2018-01-22T15:10:09.782Z,8.07
2018-01-22T15:12:37.824Z,6.57
2018-01-22T15:15:05.856Z,5.45
2018-01-22T15:17:33.909Z,5.32
2018-01-22T15:20:01.937Z,5.62
2018-01-22T15:22:30.277Z,5.57
2018-01-22T15:24:58.666Z,6.47
2018-01-22T15:27:26.725Z,6.18
2018-01-22T15:29:54.773Z,7.00
2018-01-22T15:32:23.216Z,7.30
2018-01-22T15:34:51.595Z,8.05
2018-01-22T15:37:19.656Z,8.98
2018-01-22T15:39:48.460Z,8.88
2018-01-22T15:42:16.520Z,8.38
2018-01-22T15:44:45.361Z,8.45
2018-01-22T15:47:13.676Z,6.28
2018-01-22T15:49:41.732Z,7.47
2018-01-22T15:52:09.924Z,8.38
2018-01-22T15:54:38.338Z,6.95
2018-01-22T15:57:06.372Z,8.32
2018-01-22T15:59:35.179Z,8.25
2018-01-22T16:02:03.412Z,8.88
2018-01-22T16:04:31.449Z,7.90
2018-01-22T16:07:00.284Z,8.15
2018-01-22T16:09:28.344Z,9.13
2018-01-22T16:11:57.171Z,7.00
2018-01-22T16:14:25.247Z,7.32
2018-01-22T16:16:53.360Z,6.82
2018-01-22T16:19:21.408Z,7.25
2018-01-22T16:21:49.449Z,7.47
2018-01-22T16:24:17.497Z,6.05
2018-01-22T16:26:46.136Z,6.35
2018-01-22T16:29:14.185Z,6.70
2018-01-22T16:31:42.216Z,5.95
2018-01-22T16:34:10.260Z,7.30
2018-01-22T16:36:38.316Z,8.88
2018-01-22T16:39:06.350Z,8.93
2018-01-22T16:41:34.401Z,8.38
2018-01-22T16:44:02.435Z,8.80
2018-01-22T16:46:31.255Z,10.25
2018-01-22T16:48:59.289Z,7.75
2018-01-22T16:51:27.352Z,8.55
2018-01-22T16:53:55.378Z,8.60
2018-01-22T16:56:23.445Z,7.95
2018-01-22T16:58:51.467Z,8.57
2018-01-22T17:01:19.521Z,7.43
2018-01-22T17:03:47.564Z,8.45
2018-01-22T17:06:15.593Z,9.52
2018-01-22T17:08:43.649Z,8.73
2018-01-22T17:11:11.672Z,9.10
2018-01-22T17:13:40.497Z,9.93
2018-01-22T17:16:08.524Z,10.75
2018-01-22T17:18:36.580Z,10.45
2018-01-22T17:21:04.621Z,9.63
2018-01-22T17:23:33.449Z,10.57
2018-01-22T17:26:01.497Z,10.20
2018-01-22T17:28:29.532Z,9.30
2018-01-22T17:30:57.611Z,10.38
2018-01-22T17:33:25.656Z,10.25
2018-01-22T17:35:54.487Z,9.52
2018-01-22T17:38:22.565Z,10.90
2018-01-22T17:40:50.625Z,10.80
2018-01-22T17:43:19.456Z,10.93
2018-01-22T17:45:47.497Z,10.23
2018-01-22T17:48:15.556Z,12.10
2018-01-22T17:50:43.596Z,11.52
2018-01-22T17:53:11.660Z,11.90
2018-01-22T17:55:39.693Z,10.23
2018-01-22T17:58:07.752Z,10.98
2018-01-22T18:00:35.807Z,12.15
2018-01-22T18:03:03.880Z,11.45
2018-01-22T18:05:31.949Z,12.13
2018-01-22T18:08:00.035Z,10.70
2018-01-22T18:10:28.108Z,9.40
2018-01-22T18:12:56.159Z,10.05
2018-01-22T18:15:24.977Z,10.18
2018-01-22T18:17:53.141Z,9.60
2018-01-22T18:20:21.943Z,11.25
2018-01-22T18:22:50.841Z,9.13
2018-01-22T18:25:18.896Z,10.00
2018-01-22T18:27:46.955Z,10.95
2018-01-22T18:30:15.028Z,10.30
2018-01-22T18:32:43.375Z,11.30
2018-01-22T18:35:12.252Z,8.23
2018-01-22T18:37:40.277Z,10.77
2018-01-22T18:40:09.112Z,12.00
2018-01-22T18:42:37.165Z,11.48
2018-01-22T18:45:05.964Z,11.02
2018-01-22T18:47:34.804Z,12.32
2018-01-22T18:50:02.850Z,10.70
2018-01-22T18:52:31.881Z,12.30
2018-01-22T18:54:59.951Z,16.08
2018-01-22T18:57:28.792Z,12.98
2018-01-22T18:59:56.853Z,13.45
2018-01-22T19:02:24.909Z,13.18
2018-01-22T19:04:53.708Z,13.48
2018-01-22T19:07:22.525Z,10.13
2018-01-22T19:09:50.568Z,10.25
2018-01-22T19:12:18.624Z,9.93
2018-01-22T19:14:46.662Z,11.02
2018-01-22T19:17:15.486Z,11.00
2018-01-22T19:19:43.529Z,10.73
2018-01-22T19:22:11.580Z,9.45
2018-01-22T19:24:39.628Z,8.98
2018-01-22T19:27:07.669Z,9.40
2018-01-22T19:29:35.725Z,9.98
2018-01-22T19:32:03.761Z,9.55
2018-01-22T19:34:32.580Z,9.10
2018-01-22T19:37:01.420Z,8.48
2018-01-22T19:39:29.472Z,7.43
2018-01-22T19:41:57.529Z,9.10
2018-01-22T19:44:25.564Z,10.63
2018-01-22T19:46:53.632Z,8.77
2018-01-22T19:49:21.702Z,8.68
2018-01-22T19:51:50.496Z,10.48
2018-01-22T19:54:19.324Z,11.73
2018-01-22T19:56:47.356Z,10.15
2018-01-22T19:59:15.424Z,8.70
2018-01-22T20:01:44.284Z,8.50
2018-01-22T20:04:13.025Z,9.77
2018-01-22T20:06:41.084Z,10.52
2018-01-22T20:09:09.116Z,9.25
2018-01-22T20:11:37.280Z,10.63
2018-01-22T20:14:05.362Z,10.15
2018-01-22T20:16:33.397Z,10.50
2018-01-22T20:19:02.248Z,13.82
2018-01-22T20:21:30.296Z,11.48
2018-01-22T20:23:58.356Z,9.63
2018-01-22T20:26:27.181Z,12.27
2018-01-22T20:28:55.231Z,11.07
2018-01-22T20:31:23.289Z,11.73
2018-01-22T20:33:51.324Z,10.45
2018-01-22T20:36:19.385Z,10.88
2018-01-22T20:38:48.216Z,11.73
2018-01-22T20:41:16.273Z,10.32
2018-01-22T20:43:45.110Z,11.75
2018-01-22T20:46:13.140Z,11.95
2018-01-22T20:48:41.211Z,8.50
2018-01-22T20:51:09.273Z,10.98
2018-01-22T20:53:37.445Z,10.88
2018-01-22T20:56:05.553Z,11.98
2018-01-22T20:58:33.589Z,11.20
2018-01-22T21:01:01.645Z,10.25
2018-01-22T21:03:31.237Z,11.48
2018-01-22T21:05:59.292Z,10.95
2018-01-22T21:08:27.569Z,11.90
2018-01-22T21:10:56.380Z,11.32
2018-01-22T21:13:24.458Z,12.07
2018-01-22T21:15:53.308Z,12.20
2018-01-22T21:18:21.337Z,10.00
2018-01-22T21:20:49.393Z,11.98
2018-01-22T21:23:17.432Z,9.88
2018-01-22T21:25:45.481Z,11.10
2018-01-22T21:28:13.516Z,9.45
2018-01-22T21:30:41.575Z,10.90
2018-01-22T21:33:09.644Z,10.90
2018-01-22T21:35:38.444Z,9.73
2018-01-22T21:38:07.285Z,10.02
2018-01-22T21:40:35.320Z,10.95
2018-01-22T21:43:03.429Z,10.25
2018-01-22T21:45:31.469Z,12.20
2018-01-22T21:47:59.557Z,9.70
2018-01-22T21:50:27.633Z,10.63
2018-01-22T21:52:55.993Z,10.32
2018-01-22T21:55:24.057Z,10.82
2018-01-22T21:57:52.096Z,11.02
2018-01-22T22:00:20.161Z,8.63
2018-01-22T22:02:48.213Z,8.52
2018-01-22T22:05:16.260Z,10.25
2018-01-22T22:07:45.930Z,10.95
2018-01-22T22:10:13.969Z,11.48
2018-01-22T22:12:42.024Z,12.65
2018-01-22T22:15:10.093Z,12.57
2018-01-22T22:17:38.148Z,11.80
2018-01-22T22:20:06.956Z,12.90
2018-01-22T22:22:35.006Z,14.40
2018-01-22T22:25:03.812Z,14.32
2018-01-22T22:27:31.885Z,13.90
2018-01-22T22:29:59.943Z,13.60
2018-01-22T22:32:28.003Z,15.02
2018-01-22T22:34:56.044Z,13.82
2018-01-22T22:37:24.101Z,12.23
2018-01-22T22:39:52.187Z,14.40
2018-01-22T22:42:20.220Z,12.80
2018-01-22T22:44:49.049Z,11.25
2018-01-22T22:47:17.104Z,11.55
2018-01-22T22:49:45.926Z,10.60
2018-01-22T22:52:13.988Z,11.45
2018-01-22T22:54:42.800Z,10.88
2018-01-22T22:57:10.853Z,12.68
2018-01-22T22:59:39.672Z,10.02
2018-01-22T23:02:08.501Z,10.38
2018-01-22T23:04:36.560Z,9.95
2018-01-22T23:07:05.377Z,9.82
2018-01-22T23:09:34.200Z,9.27
2018-01-22T23:12:02.276Z,10.93
2018-01-22T23:14:30.304Z,9.75
2018-01-22T23:16:58.377Z,9.13
2018-01-22T23:19:26.501Z,10.65
2018-01-22T23:21:55.320Z,10.13
2018-01-22T23:24:23.496Z,9.43
2018-01-22T23:26:52.304Z,10.27
2018-01-22T23:29:20.360Z,8.85
2018-01-22T23:31:48.397Z,10.68
2018-01-22T23:34:16.449Z,9.18
2018-01-22T23:36:45.941Z,9.05
2018-01-22T23:39:13.969Z,9.25
2018-01-22T23:41:42.020Z,12.18
2018-01-22T23:44:10.845Z,9.52
2018-01-22T23:46:38.899Z,7.95
2018-01-22T23:49:06.976Z,11.02
2018-01-22T23:51:35.112Z,7.35
2018-01-22T23:54:03.164Z,10.20
2018-01-22T23:56:31.973Z,9.45
2018-01-22T23:59:00.809Z,7.32
